sensor_id;sensor_type;location;lat;lon;timestamp;P1;durP1;ratioP1;P2;durP2;ratioP2
55288;SDS011;41154;45.394;5.734;2023-12-04T00:01:31;22.20;;;10.65;;
55288;SDS011;41154;45.394;5.734;2023-12-04T00:04:32;21.67;;;10.38;;
55288;SDS011;41154;45.394;5.734;2023-12-04T00:07:30;18.35;;;9.13;;
55288;SDS011;41154;45.394;5.734;2023-12-04T00:10:46;17.00;;;7.47;;
55288;SDS011;41154;45.394;5.734;2023-12-04T00:14:09;17.20;;;7.50;;
55288;SDS011;41154;45.394;5.734;2023-12-04T00:17:12;17.70;;;7.80;;
55288;SDS011;41154;45.394;5.734;2023-12-04T00:20:07;14.23;;;7.30;;
55288;SDS011;41154;45.394;5.734;2023-12-04T00:23:37;15.80;;;6.97;;
55288;SDS011;41154;45.394;5.734;2023-12-04T00:27:02;10.77;;;6.30;;
55288;SDS011;41154;45.394;5.734;2023-12-04T00:30:24;11.82;;;6.82;;
55288;SDS011;41154;45.394;5.734;2023-12-04T00:33:47;13.63;;;6.70;;
55288;SDS011;41154;45.394;5.734;2023-12-04T00:37:11;17.38;;;7.60;;
55288;SDS011;41154;45.394;5.734;2023-12-04T00:41:38;17.42;;;7.03;;
55288;SDS011;41154;45.394;5.734;2023-12-04T00:45:42;14.23;;;6.63;;
55288;SDS011;41154;45.394;5.734;2023-12-04T00:49:06;25.00;;;9.02;;
55288;SDS011;41154;45.394;5.734;2023-12-04T00:52:52;14.93;;;8.13;;
55288;SDS011;41154;45.394;5.734;2023-12-04T00:56:16;15.32;;;7.55;;
55288;SDS011;41154;45.394;5.734;2023-12-04T00:59:40;17.13;;;8.05;;
55288;SDS011;41154;45.394;5.734;2023-12-04T01:03:04;17.48;;;7.43;;
55288;SDS011;41154;45.394;5.734;2023-12-04T01:07:06;12.13;;;7.03;;
55288;SDS011;41154;45.394;5.734;2023-12-04T01:10:31;16.23;;;8.30;;
55288;SDS011;41154;45.394;5.734;2023-12-04T01:17:43;18.33;;;7.97;;
55288;SDS011;41154;45.394;5.734;2023-12-04T01:21:08;17.83;;;6.50;;
55288;SDS011;41154;45.394;5.734;2023-12-04T01:24:35;14.05;;;7.40;;
55288;SDS011;41154;45.394;5.734;2023-12-04T01:28:00;12.40;;;5.82;;
55288;SDS011;41154;45.394;5.734;2023-12-04T01:31:37;16.73;;;8.17;;
55288;SDS011;41154;45.394;5.734;2023-12-04T01:35:01;15.95;;;7.78;;
55288;SDS011;41154;45.394;5.734;2023-12-04T01:38:22;16.88;;;8.30;;
55288;SDS011;41154;45.394;5.734;2023-12-04T01:41:45;10.05;;;5.53;;
55288;SDS011;41154;45.394;5.734;2023-12-04T01:45:07;14.88;;;5.60;;
55288;SDS011;41154;45.394;5.734;2023-12-04T01:47:55;11.88;;;7.03;;
55288;SDS011;41154;45.394;5.734;2023-12-04T01:51:19;9.63;;;4.93;;
55288;SDS011;41154;45.394;5.734;2023-12-04T01:54:24;14.63;;;7.20;;
55288;SDS011;41154;45.394;5.734;2023-12-04T01:57:47;16.48;;;6.45;;
55288;SDS011;41154;45.394;5.734;2023-12-04T02:00:52;14.27;;;7.25;;
55288;SDS011;41154;45.394;5.734;2023-12-04T02:04:17;8.93;;;5.65;;
55288;SDS011;41154;45.394;5.734;2023-12-04T02:07:42;12.32;;;6.30;;
55288;SDS011;41154;45.394;5.734;2023-12-04T02:11:06;11.82;;;6.13;;
55288;SDS011;41154;45.394;5.734;2023-12-04T02:14:30;14.93;;;7.50;;
55288;SDS011;41154;45.394;5.734;2023-12-04T02:17:54;10.15;;;5.57;;
55288;SDS011;41154;45.394;5.734;2023-12-04T02:21:18;18.23;;;7.07;;
55288;SDS011;41154;45.394;5.734;2023-12-04T02:24:48;10.75;;;5.88;;
55288;SDS011;41154;45.394;5.734;2023-12-04T02:28:13;15.65;;;6.85;;
55288;SDS011;41154;45.394;5.734;2023-12-04T02:31:39;11.90;;;5.95;;
55288;SDS011;41154;45.394;5.734;2023-12-04T02:35:09;9.88;;;5.43;;
55288;SDS011;41154;45.394;5.734;2023-12-04T02:38:35;13.93;;;6.35;;
55288;SDS011;41154;45.394;5.734;2023-12-04T02:41:59;13.80;;;6.07;;
55288;SDS011;41154;45.394;5.734;2023-12-04T02:45:24;12.48;;;6.65;;
55288;SDS011;41154;45.394;5.734;2023-12-04T02:48:48;15.30;;;5.70;;
55288;SDS011;41154;45.394;5.734;2023-12-04T02:52:13;12.52;;;6.15;;
55288;SDS011;41154;45.394;5.734;2023-12-04T02:55:37;9.75;;;5.55;;
55288;SDS011;41154;45.394;5.734;2023-12-04T02:59:01;12.30;;;5.70;;
55288;SDS011;41154;45.394;5.734;2023-12-04T03:02:25;12.82;;;6.55;;
55288;SDS011;41154;45.394;5.734;2023-12-04T03:05:50;18.73;;;6.53;;
55288;SDS011;41154;45.394;5.734;2023-12-04T03:09:15;10.80;;;5.85;;
55288;SDS011;41154;45.394;5.734;2023-12-04T03:12:43;10.93;;;5.85;;
55288;SDS011;41154;45.394;5.734;2023-12-04T03:16:14;8.00;;;4.93;;
55288;SDS011;41154;45.394;5.734;2023-12-04T03:19:39;12.95;;;6.13;;
55288;SDS011;41154;45.394;5.734;2023-12-04T03:23:03;13.63;;;5.65;;
55288;SDS011;41154;45.394;5.734;2023-12-04T03:26:27;13.00;;;7.00;;
55288;SDS011;41154;45.394;5.734;2023-12-04T03:29:51;13.60;;;7.60;;
55288;SDS011;41154;45.394;5.734;2023-12-04T03:33:15;10.57;;;6.03;;
55288;SDS011;41154;45.394;5.734;2023-12-04T03:36:41;13.68;;;5.97;;
55288;SDS011;41154;45.394;5.734;2023-12-04T03:40:05;9.65;;;4.95;;
55288;SDS011;41154;45.394;5.734;2023-12-04T03:43:29;9.77;;;5.38;;
55288;SDS011;41154;45.394;5.734;2023-12-04T03:46:54;11.07;;;5.60;;
55288;SDS011;41154;45.394;5.734;2023-12-04T03:50:17;11.60;;;5.57;;
55288;SDS011;41154;45.394;5.734;2023-12-04T03:53:39;9.68;;;5.65;;
55288;SDS011;41154;45.394;5.734;2023-12-04T03:57:03;10.50;;;5.07;;
55288;SDS011;41154;45.394;5.734;2023-12-04T04:00:28;7.95;;;3.85;;
55288;SDS011;41154;45.394;5.734;2023-12-04T04:03:31;8.45;;;4.68;;
55288;SDS011;41154;45.394;5.734;2023-12-04T04:06:55;11.85;;;6.25;;
55288;SDS011;41154;45.394;5.734;2023-12-04T04:10:16;12.50;;;5.88;;
55288;SDS011;41154;45.394;5.734;2023-12-04T04:13:37;10.65;;;4.97;;
55288;SDS011;41154;45.394;5.734;2023-12-04T04:17:01;10.38;;;5.35;;
55288;SDS011;41154;45.394;5.734;2023-12-04T04:20:25;12.77;;;5.80;;
55288;SDS011;41154;45.394;5.734;2023-12-04T04:23:49;10.23;;;5.53;;
55288;SDS011;41154;45.394;5.734;2023-12-04T04:27:14;8.90;;;4.88;;
55288;SDS011;41154;45.394;5.734;2023-12-04T04:30:38;9.35;;;5.07;;
55288;SDS011;41154;45.394;5.734;2023-12-04T04:34:02;9.52;;;5.68;;
55288;SDS011;41154;45.394;5.734;2023-12-04T04:37:28;11.52;;;6.25;;
55288;SDS011;41154;45.394;5.734;2023-12-04T04:40:52;11.07;;;6.15;;
55288;SDS011;41154;45.394;5.734;2023-12-04T04:44:16;11.50;;;5.32;;
55288;SDS011;41154;45.394;5.734;2023-12-04T04:47:40;11.30;;;5.97;;
55288;SDS011;41154;45.394;5.734;2023-12-04T04:51:05;11.05;;;6.18;;
55288;SDS011;41154;45.394;5.734;2023-12-04T04:54:30;10.90;;;6.50;;
55288;SDS011;41154;45.394;5.734;2023-12-04T04:57:53;12.98;;;6.28;;
55288;SDS011;41154;45.394;5.734;2023-12-04T05:01:17;9.60;;;5.10;;
55288;SDS011;41154;45.394;5.734;2023-12-04T05:04:41;14.65;;;6.05;;
55288;SDS011;41154;45.394;5.734;2023-12-04T05:08:06;11.15;;;5.47;;
55288;SDS011;41154;45.394;5.734;2023-12-04T05:11:30;11.10;;;5.47;;
55288;SDS011;41154;45.394;5.734;2023-12-04T05:14:54;14.85;;;6.28;;
55288;SDS011;41154;45.394;5.734;2023-12-04T05:18:18;11.02;;;5.55;;
55288;SDS011;41154;45.394;5.734;2023-12-04T05:21:42;11.68;;;6.40;;
55288;SDS011;41154;45.394;5.734;2023-12-04T05:25:07;11.38;;;5.55;;
55288;SDS011;41154;45.394;5.734;2023-12-04T05:28:31;7.93;;;4.20;;
55288;SDS011;41154;45.394;5.734;2023-12-04T05:31:55;9.88;;;5.38;;
55288;SDS011;41154;45.394;5.734;2023-12-04T05:35:20;8.35;;;4.65;;
55288;SDS011;41154;45.394;5.734;2023-12-04T05:38:44;11.77;;;5.15;;
55288;SDS011;41154;45.394;5.734;2023-12-04T05:42:08;9.45;;;5.07;;
55288;SDS011;41154;45.394;5.734;2023-12-04T05:45:33;8.82;;;4.80;;
55288;SDS011;41154;45.394;5.734;2023-12-04T05:48:57;8.45;;;4.35;;
55288;SDS011;41154;45.394;5.734;2023-12-04T05:52:22;9.38;;;5.07;;
55288;SDS011;41154;45.394;5.734;2023-12-04T05:55:46;8.02;;;4.68;;
55288;SDS011;41154;45.394;5.734;2023-12-04T05:59:10;8.20;;;4.78;;
55288;SDS011;41154;45.394;5.734;2023-12-04T06:02:43;8.90;;;5.35;;
55288;SDS011;41154;45.394;5.734;2023-12-04T06:06:08;9.32;;;4.50;;
55288;SDS011;41154;45.394;5.734;2023-12-04T06:09:32;8.43;;;4.93;;
55288;SDS011;41154;45.394;5.734;2023-12-04T06:12:58;7.15;;;4.47;;
55288;SDS011;41154;45.394;5.734;2023-12-04T06:16:23;5.75;;;3.28;;
55288;SDS011;41154;45.394;5.734;2023-12-04T06:19:47;6.35;;;3.65;;
55288;SDS011;41154;45.394;5.734;2023-12-04T06:23:12;6.22;;;3.03;;
55288;SDS011;41154;45.394;5.734;2023-12-04T06:26:36;8.98;;;4.20;;
55288;SDS011;41154;45.394;5.734;2023-12-04T06:33:28;5.10;;;2.80;;
55288;SDS011;41154;45.394;5.734;2023-12-04T06:36:52;4.30;;;2.38;;
55288;SDS011;41154;45.394;5.734;2023-12-04T06:40:20;3.15;;;1.40;;
55288;SDS011;41154;45.394;5.734;2023-12-04T06:43:46;4.40;;;2.23;;
55288;SDS011;41154;45.394;5.734;2023-12-04T06:47:11;5.85;;;2.30;;
55288;SDS011;41154;45.394;5.734;2023-12-04T06:50:38;2.67;;;1.80;;
55288;SDS011;41154;45.394;5.734;2023-12-04T06:54:02;2.25;;;1.45;;
55288;SDS011;41154;45.394;5.734;2023-12-04T06:57:27;3.08;;;2.30;;
55288;SDS011;41154;45.394;5.734;2023-12-04T07:00:51;6.00;;;2.20;;
55288;SDS011;41154;45.394;5.734;2023-12-04T07:04:16;3.75;;;2.28;;
55288;SDS011;41154;45.394;5.734;2023-12-04T07:07:40;6.00;;;2.42;;
55288;SDS011;41154;45.394;5.734;2023-12-04T07:11:04;5.95;;;1.98;;
55288;SDS011;41154;45.394;5.734;2023-12-04T07:14:28;2.50;;;1.67;;
55288;SDS011;41154;45.394;5.734;2023-12-04T07:17:52;1.92;;;1.17;;
55288;SDS011;41154;45.394;5.734;2023-12-04T07:21:17;4.00;;;1.85;;
55288;SDS011;41154;45.394;5.734;2023-12-04T07:24:41;3.72;;;1.58;;
55288;SDS011;41154;45.394;5.734;2023-12-04T07:28:05;1.95;;;1.30;;
55288;SDS011;41154;45.394;5.734;2023-12-04T07:31:29;3.55;;;1.38;;
55288;SDS011;41154;45.394;5.734;2023-12-04T07:34:53;2.13;;;1.50;;
55288;SDS011;41154;45.394;5.734;2023-12-04T07:38:18;2.20;;;1.23;;
55288;SDS011;41154;45.394;5.734;2023-12-04T07:41:42;1.77;;;1.08;;
55288;SDS011;41154;45.394;5.734;2023-12-04T07:45:08;1.38;;;0.70;;
55288;SDS011;41154;45.394;5.734;2023-12-04T07:48:34;1.50;;;0.55;;
55288;SDS011;41154;45.394;5.734;2023-12-04T07:51:58;1.80;;;0.57;;
55288;SDS011;41154;45.394;5.734;2023-12-04T07:55:22;0.63;;;0.52;;
55288;SDS011;41154;45.394;5.734;2023-12-04T07:58:48;1.10;;;0.73;;
55288;SDS011;41154;45.394;5.734;2023-12-04T08:02:12;1.00;;;0.45;;
55288;SDS011;41154;45.394;5.734;2023-12-04T08:05:36;2.10;;;0.80;;
55288;SDS011;41154;45.394;5.734;2023-12-04T08:09:00;0.90;;;0.40;;
55288;SDS011;41154;45.394;5.734;2023-12-04T08:12:25;0.30;;;0.30;;
55288;SDS011;41154;45.394;5.734;2023-12-04T08:15:49;0.45;;;0.45;;
55288;SDS011;41154;45.394;5.734;2023-12-04T08:19:13;0.38;;;0.38;;
55288;SDS011;41154;45.394;5.734;2023-12-04T08:22:39;0.82;;;0.60;;
55288;SDS011;41154;45.394;5.734;2023-12-04T08:26:04;0.57;;;0.45;;
55288;SDS011;41154;45.394;5.734;2023-12-04T08:29:28;2.00;;;0.45;;
55288;SDS011;41154;45.394;5.734;2023-12-04T08:32:52;0.38;;;0.32;;
55288;SDS011;41154;45.394;5.734;2023-12-04T08:36:17;0.47;;;0.40;;
55288;SDS011;41154;45.394;5.734;2023-12-04T08:39:41;2.17;;;0.65;;
55288;SDS011;41154;45.394;5.734;2023-12-04T08:43:05;0.70;;;0.70;;
55288;SDS011;41154;45.394;5.734;2023-12-04T08:46:29;1.33;;;0.57;;
55288;SDS011;41154;45.394;5.734;2023-12-04T08:49:54;4.35;;;0.70;;
55288;SDS011;41154;45.394;5.734;2023-12-04T08:53:18;1.00;;;0.60;;
55288;SDS011;41154;45.394;5.734;2023-12-04T08:56:43;0.93;;;0.52;;
55288;SDS011;41154;45.394;5.734;2023-12-04T09:00:08;1.80;;;0.52;;
55288;SDS011;41154;45.394;5.734;2023-12-04T09:03:32;0.93;;;0.70;;
55288;SDS011;41154;45.394;5.734;2023-12-04T09:06:57;0.98;;;0.70;;
55288;SDS011;41154;45.394;5.734;2023-12-04T09:10:21;0.70;;;0.30;;
55288;SDS011;41154;45.394;5.734;2023-12-04T09:13:45;0.82;;;0.43;;
55288;SDS011;41154;45.394;5.734;2023-12-04T09:17:10;0.85;;;0.40;;
55288;SDS011;41154;45.394;5.734;2023-12-04T09:20:34;0.75;;;0.50;;
55288;SDS011;41154;45.394;5.734;2023-12-04T09:23:58;2.60;;;0.50;;
55288;SDS011;41154;45.394;5.734;2023-12-04T09:27:23;1.13;;;0.55;;
55288;SDS011;41154;45.394;5.734;2023-12-04T09:30:47;0.45;;;0.40;;
55288;SDS011;41154;45.394;5.734;2023-12-04T09:34:11;2.28;;;0.43;;
55288;SDS011;41154;45.394;5.734;2023-12-04T09:37:35;1.63;;;0.70;;
55288;SDS011;41154;45.394;5.734;2023-12-04T09:41:01;0.40;;;0.40;;
55288;SDS011;41154;45.394;5.734;2023-12-04T09:44:26;1.35;;;0.60;;
55288;SDS011;41154;45.394;5.734;2023-12-04T09:51:19;0.60;;;0.43;;
55288;SDS011;41154;45.394;5.734;2023-12-04T09:54:45;1.85;;;0.40;;
55288;SDS011;41154;45.394;5.734;2023-12-04T09:58:12;1.00;;;0.38;;
55288;SDS011;41154;45.394;5.734;2023-12-04T10:01:40;0.85;;;0.50;;
55288;SDS011;41154;45.394;5.734;2023-12-04T10:05:07;0.45;;;0.40;;
55288;SDS011;41154;45.394;5.734;2023-12-04T10:11:58;0.65;;;0.40;;
55288;SDS011;41154;45.394;5.734;2023-12-04T10:15:23;0.55;;;0.20;;
55288;SDS011;41154;45.394;5.734;2023-12-04T10:19:16;0.65;;;0.30;;
55288;SDS011;41154;45.394;5.734;2023-12-04T10:30:32;1.10;;;0.38;;
55288;SDS011;41154;45.394;5.734;2023-12-04T10:34:00;0.47;;;0.40;;
55288;SDS011;41154;45.394;5.734;2023-12-04T10:36:27;0.40;;;0.40;;
55288;SDS011;41154;45.394;5.734;2023-12-04T10:39:54;0.93;;;0.50;;
55288;SDS011;41154;45.394;5.734;2023-12-04T10:43:19;0.35;;;0.30;;
55288;SDS011;41154;45.394;5.734;2023-12-04T10:46:43;0.68;;;0.30;;
55288;SDS011;41154;45.394;5.734;2023-12-04T10:50:10;0.30;;;0.30;;
55288;SDS011;41154;45.394;5.734;2023-12-04T10:57:27;0.63;;;0.43;;
55288;SDS011;41154;45.394;5.734;2023-12-04T11:00:51;1.10;;;0.35;;
55288;SDS011;41154;45.394;5.734;2023-12-04T11:05:20;0.20;;;0.20;;
55288;SDS011;41154;45.394;5.734;2023-12-04T11:12:33;0.20;;;0.20;;
55288;SDS011;41154;45.394;5.734;2023-12-04T11:20:31;1.17;;;0.30;;
55288;SDS011;41154;45.394;5.734;2023-12-04T11:23:49;0.75;;;0.30;;
55288;SDS011;41154;45.394;5.734;2023-12-04T11:27:15;0.75;;;0.22;;
55288;SDS011;41154;45.394;5.734;2023-12-04T11:31:42;0.30;;;0.28;;
55288;SDS011;41154;45.394;5.734;2023-12-04T11:35:25;0.60;;;0.28;;
55288;SDS011;41154;45.394;5.734;2023-12-04T11:38:50;0.20;;;0.20;;
55288;SDS011;41154;45.394;5.734;2023-12-04T11:42:56;0.25;;;0.25;;
55288;SDS011;41154;45.394;5.734;2023-12-04T11:46:21;0.70;;;0.20;;
55288;SDS011;41154;45.394;5.734;2023-12-04T11:49:46;0.30;;;0.20;;
55288;SDS011;41154;45.394;5.734;2023-12-04T11:53:23;0.65;;;0.25;;
55288;SDS011;41154;45.394;5.734;2023-12-04T11:56:57;0.25;;;0.25;;
55288;SDS011;41154;45.394;5.734;2023-12-04T12:00:41;0.40;;;0.40;;
55288;SDS011;41154;45.394;5.734;2023-12-04T12:04:08;0.57;;;0.50;;
55288;SDS011;41154;45.394;5.734;2023-12-04T12:11:16;0.30;;;0.30;;
55288;SDS011;41154;45.394;5.734;2023-12-04T12:14:40;0.20;;;0.20;;
55288;SDS011;41154;45.394;5.734;2023-12-04T12:18:01;0.40;;;0.40;;
55288;SDS011;41154;45.394;5.734;2023-12-04T12:21:27;0.20;;;0.20;;
55288;SDS011;41154;45.394;5.734;2023-12-04T12:24:51;0.40;;;0.30;;
55288;SDS011;41154;45.394;5.734;2023-12-04T12:28:16;0.20;;;0.10;;
55288;SDS011;41154;45.394;5.734;2023-12-04T12:31:39;0.60;;;0.40;;
55288;SDS011;41154;45.394;5.734;2023-12-04T12:35:33;0.80;;;0.40;;
55288;SDS011;41154;45.394;5.734;2023-12-04T12:39:00;0.22;;;0.22;;
55288;SDS011;41154;45.394;5.734;2023-12-04T12:46:09;1.42;;;0.60;;
55288;SDS011;41154;45.394;5.734;2023-12-04T12:53:14;2.08;;;1.08;;
55288;SDS011;41154;45.394;5.734;2023-12-04T12:56:39;1.90;;;0.88;;
55288;SDS011;41154;45.394;5.734;2023-12-04T13:00:03;2.30;;;0.70;;
55288;SDS011;41154;45.394;5.734;2023-12-04T13:07:08;0.85;;;0.28;;
55288;SDS011;41154;45.394;5.734;2023-12-04T13:10:31;0.82;;;0.17;;
55288;SDS011;41154;45.394;5.734;2023-12-04T13:13:56;0.20;;;0.20;;
55288;SDS011;41154;45.394;5.734;2023-12-04T13:17:20;0.40;;;0.20;;
55288;SDS011;41154;45.394;5.734;2023-12-04T13:20:45;0.73;;;0.22;;
55288;SDS011;41154;45.394;5.734;2023-12-04T13:24:10;0.20;;;0.20;;
55288;SDS011;41154;45.394;5.734;2023-12-04T13:27:35;0.30;;;0.20;;
55288;SDS011;41154;45.394;5.734;2023-12-04T13:30:59;0.65;;;0.30;;
55288;SDS011;41154;45.394;5.734;2023-12-04T13:34:22;0.10;;;0.10;;
55288;SDS011;41154;45.394;5.734;2023-12-04T13:37:27;0.35;;;0.20;;
55288;SDS011;41154;45.394;5.734;2023-12-04T13:41:50;0.30;;;0.15;;
55288;SDS011;41154;45.394;5.734;2023-12-04T13:45:28;0.55;;;0.13;;
55288;SDS011;41154;45.394;5.734;2023-12-04T13:48:52;0.13;;;0.13;;
55288;SDS011;41154;45.394;5.734;2023-12-04T13:53:19;0.10;;;0.10;;
55288;SDS011;41154;45.394;5.734;2023-12-04T13:57:58;0.40;;;0.20;;
55288;SDS011;41154;45.394;5.734;2023-12-04T14:01:32;0.20;;;0.13;;
55288;SDS011;41154;45.394;5.734;2023-12-04T14:04:56;0.17;;;0.13;;
55288;SDS011;41154;45.394;5.734;2023-12-04T14:08:21;0.10;;;0.10;;
55288;SDS011;41154;45.394;5.734;2023-12-04T14:12:00;0.10;;;0.10;;
55288;SDS011;41154;45.394;5.734;2023-12-04T14:15:23;1.23;;;0.20;;
55288;SDS011;41154;45.394;5.734;2023-12-04T14:18:41;0.10;;;0.10;;
55288;SDS011;41154;45.394;5.734;2023-12-04T14:22:40;0.10;;;0.10;;
55288;SDS011;41154;45.394;5.734;2023-12-04T14:26:00;0.10;;;0.10;;
55288;SDS011;41154;45.394;5.734;2023-12-04T14:29:23;0.10;;;0.10;;
55288;SDS011;41154;45.394;5.734;2023-12-04T14:32:47;0.20;;;0.20;;
55288;SDS011;41154;45.394;5.734;2023-12-04T14:36:37;0.10;;;0.10;;
55288;SDS011;41154;45.394;5.734;2023-12-04T14:39:07;0.10;;;0.10;;
55288;SDS011;41154;45.394;5.734;2023-12-04T14:41:56;0.10;;;0.10;;
55288;SDS011;41154;45.394;5.734;2023-12-04T14:45:21;0.10;;;0.10;;
55288;SDS011;41154;45.394;5.734;2023-12-04T14:48:44;0.20;;;0.20;;
55288;SDS011;41154;45.394;5.734;2023-12-04T14:51:22;0.10;;;0.10;;
55288;SDS011;41154;45.394;5.734;2023-12-04T14:54:47;0.10;;;0.10;;
55288;SDS011;41154;45.394;5.734;2023-12-04T14:57:34;0.10;;;0.10;;
55288;SDS011;41154;45.394;5.734;2023-12-04T15:01:12;0.10;;;0.10;;
55288;SDS011;41154;45.394;5.734;2023-12-04T15:04:36;0.10;;;0.10;;
55288;SDS011;41154;45.394;5.734;2023-12-04T15:08:04;0.10;;;0.10;;
55288;SDS011;41154;45.394;5.734;2023-12-04T15:14:30;0.10;;;0.10;;
55288;SDS011;41154;45.394;5.734;2023-12-04T15:17:51;0.10;;;0.10;;
55288;SDS011;41154;45.394;5.734;2023-12-04T15:21:07;0.10;;;0.10;;
55288;SDS011;41154;45.394;5.734;2023-12-04T15:27:38;0.03;;;0.03;;
55288;SDS011;41154;45.394;5.734;2023-12-04T15:30:58;0.10;;;0.10;;
55288;SDS011;41154;45.394;5.734;2023-12-04T15:35:19;0.47;;;0.10;;
55288;SDS011;41154;45.394;5.734;2023-12-04T15:37:58;0.10;;;0.10;;
55288;SDS011;41154;45.394;5.734;2023-12-04T15:40:54;0.10;;;0.10;;
55288;SDS011;41154;45.394;5.734;2023-12-04T15:43:59;0.10;;;0.10;;
55288;SDS011;41154;45.394;5.734;2023-12-04T15:50:29;0.10;;;0.10;;
55288;SDS011;41154;45.394;5.734;2023-12-04T15:53:20;0.10;;;0.10;;
55288;SDS011;41154;45.394;5.734;2023-12-04T15:56:35;0.10;;;0.10;;
55288;SDS011;41154;45.394;5.734;2023-12-04T16:00:00;0.15;;;0.10;;
55288;SDS011;41154;45.394;5.734;2023-12-04T16:03:25;0.10;;;0.10;;
55288;SDS011;41154;45.394;5.734;2023-12-04T16:06:46;0.20;;;0.10;;
55288;SDS011;41154;45.394;5.734;2023-12-04T16:10:10;0.32;;;0.10;;
55288;SDS011;41154;45.394;5.734;2023-12-04T16:13:34;0.90;;;0.50;;
55288;SDS011;41154;45.394;5.734;2023-12-04T16:16:59;0.95;;;0.43;;
55288;SDS011;41154;45.394;5.734;2023-12-04T16:20:22;0.20;;;0.20;;
55288;SDS011;41154;45.394;5.734;2023-12-04T16:27:30;0.10;;;0.10;;
55288;SDS011;41154;45.394;5.734;2023-12-04T16:30:48;0.10;;;0.10;;
55288;SDS011;41154;45.394;5.734;2023-12-04T16:34:12;0.10;;;0.10;;
55288;SDS011;41154;45.394;5.734;2023-12-04T16:37:36;0.10;;;0.10;;
55288;SDS011;41154;45.394;5.734;2023-12-04T16:41:05;0.20;;;0.20;;
55288;SDS011;41154;45.394;5.734;2023-12-04T16:44:26;1.30;;;0.10;;
55288;SDS011;41154;45.394;5.734;2023-12-04T16:47:48;0.03;;;0.03;;
55288;SDS011;41154;45.394;5.734;2023-12-04T16:51:22;0.28;;;0.10;;
55288;SDS011;41154;45.394;5.734;2023-12-04T16:54:45;0.38;;;0.20;;
55288;SDS011;41154;45.394;5.734;2023-12-04T16:57:54;0.30;;;0.22;;
55288;SDS011;41154;45.394;5.734;2023-12-04T17:01:10;0.10;;;0.10;;
55288;SDS011;41154;45.394;5.734;2023-12-04T17:04:33;0.10;;;0.10;;
55288;SDS011;41154;45.394;5.734;2023-12-04T17:07:48;0.10;;;0.10;;
55288;SDS011;41154;45.394;5.734;2023-12-04T17:11:12;0.40;;;0.20;;
55288;SDS011;41154;45.394;5.734;2023-12-04T17:18:35;1.35;;;0.20;;
55288;SDS011;41154;45.394;5.734;2023-12-04T17:21:57;0.20;;;0.10;;
55288;SDS011;41154;45.394;5.734;2023-12-04T17:25:21;0.10;;;0.10;;
55288;SDS011;41154;45.394;5.734;2023-12-04T17:28:21;0.10;;;0.10;;
55288;SDS011;41154;45.394;5.734;2023-12-04T17:32:48;0.22;;;0.13;;
55288;SDS011;41154;45.394;5.734;2023-12-04T17:37:34;0.10;;;0.10;;
55288;SDS011;41154;45.394;5.734;2023-12-04T17:44:53;0.30;;;0.20;;
55288;SDS011;41154;45.394;5.734;2023-12-04T17:48:18;0.52;;;0.22;;
55288;SDS011;41154;45.394;5.734;2023-12-04T17:51:42;0.13;;;0.13;;
55288;SDS011;41154;45.394;5.734;2023-12-04T17:55:11;0.00;;;0.00;;
55288;SDS011;41154;45.394;5.734;2023-12-04T17:59:38;0.10;;;0.10;;
55288;SDS011;41154;45.394;5.734;2023-12-04T18:11:38;0.10;;;0.10;;
55288;SDS011;41154;45.394;5.734;2023-12-04T18:15:03;0.80;;;0.15;;
55288;SDS011;41154;45.394;5.734;2023-12-04T18:19:02;0.40;;;0.40;;
55288;SDS011;41154;45.394;5.734;2023-12-04T18:22:45;0.15;;;0.15;;
55288;SDS011;41154;45.394;5.734;2023-12-04T18:30:01;0.20;;;0.20;;
55288;SDS011;41154;45.394;5.734;2023-12-04T18:33:26;0.28;;;0.20;;
55288;SDS011;41154;45.394;5.734;2023-12-04T18:36:52;0.20;;;0.20;;
55288;SDS011;41154;45.394;5.734;2023-12-04T18:45:06;0.68;;;0.30;;
55288;SDS011;41154;45.394;5.734;2023-12-04T18:52:04;1.17;;;0.60;;
55288;SDS011;41154;45.394;5.734;2023-12-04T18:55:28;0.90;;;0.73;;
55288;SDS011;41154;45.394;5.734;2023-12-04T18:58:48;2.05;;;1.10;;
55288;SDS011;41154;45.394;5.734;2023-12-04T19:01:48;1.30;;;0.90;;
55288;SDS011;41154;45.394;5.734;2023-12-04T19:04:33;2.60;;;1.43;;
55288;SDS011;41154;45.394;5.734;2023-12-04T19:07:56;3.38;;;1.63;;
55288;SDS011;41154;45.394;5.734;2023-12-04T19:11:20;4.07;;;1.70;;
55288;SDS011;41154;45.394;5.734;2023-12-04T19:14:32;8.10;;;4.60;;
55288;SDS011;41154;45.394;5.734;2023-12-04T19:17:43;2.50;;;1.52;;
55288;SDS011;41154;45.394;5.734;2023-12-04T19:21:00;1.17;;;0.98;;
55288;SDS011;41154;45.394;5.734;2023-12-04T19:24:20;3.42;;;1.88;;
55288;SDS011;41154;45.394;5.734;2023-12-04T19:27:32;5.03;;;2.63;;
55288;SDS011;41154;45.394;5.734;2023-12-04T19:30:08;8.25;;;3.33;;
55288;SDS011;41154;45.394;5.734;2023-12-04T19:32:34;7.15;;;3.55;;
55288;SDS011;41154;45.394;5.734;2023-12-04T19:35:28;6.78;;;3.22;;
55288;SDS011;41154;45.394;5.734;2023-12-04T19:38:04;7.78;;;3.08;;
55288;SDS011;41154;45.394;5.734;2023-12-04T19:40:32;2.83;;;2.08;;
55288;SDS011;41154;45.394;5.734;2023-12-04T19:43:00;2.92;;;2.10;;
55288;SDS011;41154;45.394;5.734;2023-12-04T19:45:26;3.42;;;1.98;;
55288;SDS011;41154;45.394;5.734;2023-12-04T19:47:52;4.82;;;2.30;;
55288;SDS011;41154;45.394;5.734;2023-12-04T19:50:23;4.63;;;2.97;;
55288;SDS011;41154;45.394;5.734;2023-12-04T19:52:49;3.58;;;2.60;;
55288;SDS011;41154;45.394;5.734;2023-12-04T19:55:14;3.38;;;2.55;;
55288;SDS011;41154;45.394;5.734;2023-12-04T19:57:40;2.97;;;2.15;;
55288;SDS011;41154;45.394;5.734;2023-12-04T20:00:09;5.55;;;2.88;;
55288;SDS011;41154;45.394;5.734;2023-12-04T20:02:40;4.07;;;2.78;;
55288;SDS011;41154;45.394;5.734;2023-12-04T20:05:06;5.50;;;3.00;;
55288;SDS011;41154;45.394;5.734;2023-12-04T20:07:31;6.30;;;3.20;;
55288;SDS011;41154;45.394;5.734;2023-12-04T20:09:57;4.10;;;2.70;;
55288;SDS011;41154;45.394;5.734;2023-12-04T20:12:23;6.50;;;3.05;;
55288;SDS011;41154;45.394;5.734;2023-12-04T20:14:49;4.95;;;3.50;;
55288;SDS011;41154;45.394;5.734;2023-12-04T20:17:14;3.63;;;2.80;;
55288;SDS011;41154;45.394;5.734;2023-12-04T20:19:43;3.67;;;2.70;;
55288;SDS011;41154;45.394;5.734;2023-12-04T20:22:14;7.57;;;3.63;;
55288;SDS011;41154;45.394;5.734;2023-12-04T20:24:41;5.90;;;3.80;;
55288;SDS011;41154;45.394;5.734;2023-12-04T20:27:12;6.65;;;3.80;;
55288;SDS011;41154;45.394;5.734;2023-12-04T20:29:39;6.85;;;4.10;;
55288;SDS011;41154;45.394;5.734;2023-12-04T20:32:08;4.68;;;3.38;;
55288;SDS011;41154;45.394;5.734;2023-12-04T20:34:34;4.97;;;3.60;;
55288;SDS011;41154;45.394;5.734;2023-12-04T20:37:01;5.32;;;3.72;;
55288;SDS011;41154;45.394;5.734;2023-12-04T20:39:27;6.70;;;3.50;;
55288;SDS011;41154;45.394;5.734;2023-12-04T20:41:53;4.35;;;3.25;;
55288;SDS011;41154;45.394;5.734;2023-12-04T20:44:23;4.15;;;2.95;;
55288;SDS011;41154;45.394;5.734;2023-12-04T20:46:49;5.47;;;3.53;;
55288;SDS011;41154;45.394;5.734;2023-12-04T20:49:17;6.93;;;4.78;;
55288;SDS011;41154;45.394;5.734;2023-12-04T20:51:44;11.43;;;7.80;;
55288;SDS011;41154;45.394;5.734;2023-12-04T20:54:10;7.25;;;4.20;;
55288;SDS011;41154;45.394;5.734;2023-12-04T20:56:36;5.68;;;3.55;;
55288;SDS011;41154;45.394;5.734;2023-12-04T20:59:01;4.35;;;3.00;;
55288;SDS011;41154;45.394;5.734;2023-12-04T21:01:28;5.20;;;3.33;;
55288;SDS011;41154;45.394;5.734;2023-12-04T21:03:54;5.10;;;3.20;;
55288;SDS011;41154;45.394;5.734;2023-12-04T21:06:21;8.93;;;5.90;;
55288;SDS011;41154;45.394;5.734;2023-12-04T21:08:48;6.07;;;4.50;;
55288;SDS011;41154;45.394;5.734;2023-12-04T21:11:13;6.47;;;4.00;;
55288;SDS011;41154;45.394;5.734;2023-12-04T21:13:39;18.30;;;13.05;;
55288;SDS011;41154;45.394;5.734;2023-12-04T21:16:05;6.22;;;3.90;;
55288;SDS011;41154;45.394;5.734;2023-12-04T21:18:31;6.97;;;5.07;;
55288;SDS011;41154;45.394;5.734;2023-12-04T21:20:57;3.92;;;3.15;;